Time;durP1;ratioP1;P1;durP2;ratioP2;P2;SDS_P1;SDS_P2;PMS_P1;PMS_P2;Temp;Humidity;BMP_temperature;BMP_pressure;BME280_temperature;BME280_humidity;BME280_pressure;Samples;Min_cycle;Max_cycle;Signal;HPM_P1;HPM_P2
2023/06/05 00:01:57;;;;;;;3.40;2.80;;;17.70;33.60;;;;;;4973480;28;20736;-58
2023/06/05 00:04:23;;;;;;;3.13;2.77;;;17.60;33.50;;;;;;4973492;28;20711;-55
2023/06/05 00:06:50;;;;;;;3.63;2.95;;;17.60;33.70;;;;;;4973362;28;20207;-58
2023/06/05 00:09:16;;;;;;;4.25;2.83;;;17.60;33.80;;;;;;4973282;28;20665;-54
2023/06/05 00:11:42;;;;;;;4.90;3.03;;;17.50;33.60;;;;;;4973529;28;20272;-54
2023/06/05 00:14:08;;;;;;;3.50;2.60;;;17.40;33.80;;;;;;4973463;28;20196;-54
2023/06/05 00:16:35;;;;;;;3.58;2.90;;;17.40;33.90;;;;;;4973607;28;20200;-56
2023/06/05 00:19:01;;;;;;;3.65;3.08;;;17.30;34.00;;;;;;4973403;28;20199;-55
2023/06/05 00:21:28;;;;;;;3.95;2.22;;;17.30;33.80;;;;;;4973117;28;20234;-55
2023/06/05 00:23:53;;;;;;;2.83;2.28;;;17.30;33.70;;;;;;4973351;28;20640;-58
2023/06/05 00:26:19;;;;;;;4.27;2.87;;;17.30;33.80;;;;;;4973278;28;20307;-55
2023/06/05 00:28:46;;;;;;;4.10;2.93;;;17.30;34.10;;;;;;4955866;28;20206;-57
2023/06/05 00:31:12;;;;;;;3.50;2.60;;;17.20;34.10;;;;;;4972941;28;20176;-54
2023/06/05 00:33:39;;;;;;;4.80;3.35;;;17.10;33.80;;;;;;4973285;28;20176;-56
2023/06/05 00:36:05;;;;;;;3.20;2.90;;;17.10;33.90;;;;;;4973181;28;20174;-58
2023/06/05 00:38:31;;;;;;;3.20;2.90;;;17.10;33.70;;;;;;4973467;28;20734;-54
2023/06/05 00:40:57;;;;;;;3.50;3.15;;;17.10;34.00;;;;;;4972952;28;20300;-53
2023/06/05 00:43:23;;;;;;;2.67;2.20;;;17.10;34.00;;;;;;4973058;28;20590;-58
2023/06/05 00:45:53;;;;;;;4.77;3.13;;;17.10;34.40;;;;;;4973226;28;20246;-58
2023/06/05 00:48:19;;;;;;;3.20;2.60;;;17.10;34.60;;;;;;4974140;28;20176;-54
2023/06/05 00:50:45;;;;;;;3.50;2.90;;;17.10;34.40;;;;;;4976954;28;20179;-54
2023/06/05 00:53:12;;;;;;;3.10;2.45;;;17.10;34.60;;;;;;4977171;28;20793;-56
2023/06/05 00:55:38;;;;;;;4.10;2.35;;;17.00;34.70;;;;;;4977256;28;20186;-55
2023/06/05 00:58:04;;;;;;;4.73;3.23;;;17.00;34.50;;;;;;4976696;28;20188;-55
2023/06/05 01:00:30;;;;;;;3.85;2.75;;;16.90;34.50;;;;;;4976993;28;20194;-56
2023/06/05 01:02:58;;;;;;;3.43;2.50;;;16.90;34.20;;;;;;4959559;28;20663;-55
2023/06/05 01:05:24;;;;;;;4.90;3.88;;;16.90;34.10;;;;;;4976731;28;20462;-56
2023/06/05 01:07:50;;;;;;;3.45;2.95;;;16.90;34.50;;;;;;4976878;28;20199;-57
2023/06/05 01:10:17;;;;;;;3.35;2.80;;;16.80;34.40;;;;;;4976514;28;20180;-54
2023/06/05 01:13:05;;;;;;;3.45;2.55;;;16.90;34.60;;;;;;4976500;28;20281;-58
2023/06/05 01:15:33;;;;;;;3.45;2.72;;;16.90;34.50;;;;;;4976927;28;20309;-54
2023/06/05 01:18:00;;;;;;;4.13;2.70;;;16.80;34.50;;;;;;4976830;28;20202;-54
2023/06/05 01:20:39;;;;;;;3.38;2.40;;;16.70;34.50;;;;;;4976357;28;20179;-58
2023/06/05 01:23:08;;;;;;;3.10;2.70;;;16.70;34.60;;;;;;4976278;28;20245;-57
2023/06/05 01:25:36;;;;;;;3.10;2.80;;;16.60;34.60;;;;;;4976449;28;20302;-54
2023/06/05 01:28:18;;;;;;;4.90;2.78;;;16.50;34.70;;;;;;4976459;28;20203;-55
2023/06/05 01:31:13;;;;;;;4.10;2.67;;;16.50;35.00;;;;;;4976178;28;20651;-55
2023/06/05 01:33:56;;;;;;;4.45;3.38;;;16.40;35.20;;;;;;4976275;28;20195;-57
2023/06/05 01:36:22;;;;;;;3.22;2.47;;;16.40;35.10;;;;;;4976261;28;20192;-57
2023/06/05 01:38:51;;;;;;;3.40;2.50;;;16.30;35.40;;;;;;4976362;28;20179;-54
2023/06/05 01:41:18;;;;;;;2.53;1.98;;;16.30;35.30;;;;;;4975918;28;20650;-56
2023/06/05 01:43:46;;;;;;;3.05;2.65;;;16.30;35.40;;;;;;4975972;28;20204;-54
2023/06/05 01:46:14;;;;;;;5.20;3.10;;;16.30;35.60;;;;;;4976072;28;20175;-55
2023/06/05 01:48:42;;;;;;;3.72;3.25;;;16.30;35.50;;;;;;4976044;28;20668;-55
2023/06/05 01:51:08;;;;;;;3.65;2.60;;;16.30;35.50;;;;;;4975816;28;20187;-57
2023/06/05 01:53:34;;;;;;;5.65;3.03;;;16.40;35.30;;;;;;4976041;28;20670;-54
2023/06/05 01:56:00;;;;;;;4.20;2.33;;;16.40;35.30;;;;;;4975856;28;20184;-55
2023/06/05 01:58:26;;;;;;;4.68;3.33;;;16.40;35.30;;;;;;4975836;28;20411;-57
2023/06/05 02:00:53;;;;;;;3.63;2.90;;;16.30;35.20;;;;;;4975483;28;20175;-54
2023/06/05 02:03:22;;;;;;;3.55;2.78;;;16.30;35.20;;;;;;4958378;28;20176;-54
2023/06/05 02:05:49;;;;;;;6.28;3.40;;;16.30;35.40;;;;;;4975744;28;20195;-57
2023/06/05 02:08:19;;;;;;;6.55;3.03;;;16.20;35.70;;;;;;4975583;28;20596;-58
2023/06/05 02:10:46;;;;;;;3.70;2.75;;;16.10;35.60;;;;;;4975418;28;20241;-55
2023/06/05 02:13:12;;;;;;;4.38;3.05;;;16.10;35.60;;;;;;4975556;28;20186;-56
2023/06/05 02:15:38;;;;;;;2.92;2.63;;;16.00;35.30;;;;;;4975750;28;20172;-57
2023/06/05 02:18:07;;;;;;;4.30;3.37;;;16.00;35.50;;;;;;4975463;28;20242;-56
2023/06/05 02:20:34;;;;;;;4.78;3.00;;;16.00;35.70;;;;;;4975324;28;20173;-59
2023/06/05 02:23:00;;;;;;;3.90;3.42;;;16.00;35.80;;;;;;4975624;28;20180;-57
2023/06/05 02:25:26;;;;;;;7.03;3.17;;;16.00;35.90;;;;;;4975225;28;20210;-55
2023/06/05 02:27:56;;;;;;;4.10;3.40;;;16.00;35.80;;;;;;4975461;28;20204;-56
2023/06/05 02:30:22;;;;;;;3.70;2.83;;;16.00;35.80;;;;;;4975427;28;20237;-54
2023/06/05 02:32:48;;;;;;;3.60;3.20;;;16.00;36.00;;;;;;4975269;28;20251;-55
2023/06/05 02:35:14;;;;;;;3.75;2.60;;;16.00;35.70;;;;;;4975507;28;20580;-57
2023/06/05 02:37:44;;;;;;;15.57;3.50;;;16.00;36.10;;;;;;4975153;28;20199;-55
2023/06/05 02:40:11;;;;;;;6.30;2.88;;;16.00;35.60;;;;;;4974894;28;20279;-57
2023/06/05 02:42:38;;;;;;;6.05;2.75;;;15.90;35.80;;;;;;4975082;28;20175;-58
2023/06/05 02:45:04;;;;;;;4.20;2.42;;;15.90;35.70;;;;;;4957612;28;20214;-56
2023/06/05 02:47:30;;;;;;;4.35;2.65;;;15.90;35.20;;;;;;4975231;28;20674;-55
2023/06/05 02:49:57;;;;;;;3.97;3.38;;;15.90;35.50;;;;;;4974759;28;20172;-57
2023/06/05 02:52:24;;;;;;;3.53;2.83;;;15.90;35.80;;;;;;4974904;28;20173;-55
2023/06/05 02:54:50;;;;;;;3.50;2.65;;;15.90;35.80;;;;;;4974768;28;20191;-53
2023/06/05 02:57:17;;;;;;;3.85;2.47;;;15.90;36.80;;;;;;4974753;28;20200;-56
2023/06/05 02:59:43;;;;;;;4.18;3.42;;;15.90;36.00;;;;;;4974625;28;20210;-57
2023/06/05 03:02:10;;;;;;;4.20;2.90;;;15.90;35.80;;;;;;4974756;28;20176;-55
2023/06/05 03:04:39;;;;;;;5.38;2.83;;;16.00;36.10;;;;;;4974494;28;20208;-60
2023/06/05 03:07:05;;;;;;;3.03;2.72;;;16.00;36.00;;;;;;4974586;28;20242;-57
2023/06/05 03:09:31;;;;;;;3.10;2.80;;;16.00;36.10;;;;;;4974633;28;20180;-55
2023/06/05 03:11:58;;;;;;;3.13;2.50;;;16.00;36.00;;;;;;4956607;28;20750;-55
2023/06/05 03:14:24;;;;;;;4.22;2.83;;;15.90;36.00;;;;;;4974601;28;20400;-58
2023/06/05 03:16:50;;;;;;;3.45;2.50;;;15.90;36.00;;;;;;4974461;28;20204;-55
2023/06/05 03:19:16;;;;;;;3.10;2.80;;;15.90;36.30;;;;;;4974224;28;20187;-59
2023/06/05 03:21:42;;;;;;;8.40;2.97;;;15.90;36.40;;;;;;4957137;28;20172;-55
2023/06/05 03:24:12;;;;;;;3.65;2.90;;;15.90;36.50;;;;;;4974492;28;20505;-54
2023/06/05 03:26:44;;;;;;;6.10;3.42;;;15.90;36.30;;;;;;4974160;28;20195;-58
2023/06/05 03:29:10;;;;;;;11.85;3.83;;;15.90;36.20;;;;;;4956944;28;20180;-56
2023/06/05 03:31:36;;;;;;;12.18;3.90;;;15.90;36.40;;;;;;4974071;28;20705;-57
2023/06/05 03:34:03;;;;;;;17.63;4.20;;;15.90;36.30;;;;;;4974302;28;20180;-57
2023/06/05 03:36:30;;;;;;;5.78;3.60;;;15.90;36.30;;;;;;4974070;28;20461;-55
2023/06/05 03:38:56;;;;;;;5.50;2.83;;;15.90;36.10;;;;;;4974301;28;20207;-58
2023/06/05 03:41:23;;;;;;;2.92;2.63;;;16.00;35.90;;;;;;4973962;28;20266;-54
2023/06/05 03:43:52;;;;;;;6.20;3.13;;;16.00;36.10;;;;;;4973965;28;20324;-57
2023/06/05 03:46:18;;;;;;;3.20;2.60;;;16.00;35.90;;;;;;4974042;28;20200;-54
2023/06/05 03:48:58;;;;;;;2.60;2.10;;;16.10;36.00;;;;;;4956702;28;20196;-54
2023/06/05 03:51:27;;;;;;;4.40;3.30;;;16.10;35.90;;;;;;4974055;28;20156;-58
2023/06/05 03:53:54;;;;;;;5.70;2.95;;;16.10;35.90;;;;;;4956578;28;20198;-56
2023/06/05 03:56:21;;;;;;;5.20;2.03;;;16.20;35.60;;;;;;4973725;28;20207;-55
2023/06/05 03:58:48;;;;;;;12.05;3.65;;;16.20;35.60;;;;;;4974122;28;20176;-58
2023/06/05 04:01:14;;;;;;;6.13;3.60;;;16.30;35.70;;;;;;4973432;28;20263;-55
2023/06/05 04:03:40;;;;;;;4.10;2.83;;;16.40;35.20;;;;;;4973435;28;20343;-58
2023/06/05 04:06:06;;;;;;;3.17;2.87;;;16.40;35.30;;;;;;4973445;28;20442;-59
2023/06/05 04:08:32;;;;;;;4.70;2.55;;;16.40;35.30;;;;;;4956425;28;20407;-54
2023/06/05 04:10:59;;;;;;;4.82;3.00;;;16.40;35.00;;;;;;4973304;28;20187;-60
2023/06/05 04:13:25;;;;;;;3.50;3.05;;;16.50;35.30;;;;;;4973790;28;20230;-55
2023/06/05 04:15:50;;;;;;;4.00;3.00;;;16.60;35.40;;;;;;4973371;28;20184;-54
2023/06/05 04:18:16;;;;;;;3.23;2.27;;;16.70;35.20;;;;;;4973900;28;20189;-60
2023/06/05 04:20:42;;;;;;;3.80;2.63;;;16.70;35.20;;;;;;4973083;28;20763;-60
2023/06/05 04:23:09;;;;;;;6.03;3.10;;;16.80;35.50;;;;;;4972290;28;20180;-55
2023/06/05 04:25:34;;;;;;;8.45;3.20;;;16.90;35.40;;;;;;4955992;28;20172;-54
2023/06/05 04:28:00;;;;;;;6.07;2.57;;;17.00;35.50;;;;;;4973445;28;20200;-56
2023/06/05 04:30:26;;;;;;;4.70;2.93;;;17.10;35.40;;;;;;4973095;28;20555;-54
2023/06/05 04:32:55;;;;;;;4.30;2.93;;;17.20;35.80;;;;;;4973186;28;20174;-59
2023/06/05 04:35:22;;;;;;;2.92;2.20;;;17.30;34.90;;;;;;4973275;28;20936;-54
2023/06/05 04:37:48;;;;;;;4.20;2.50;;;17.40;34.20;;;;;;4973108;28;20202;-56
2023/06/05 04:40:17;;;;;;;2.92;2.00;;;17.50;33.60;;;;;;4972970;28;20184;-57
2023/06/05 04:42:42;;;;;;;3.78;2.70;;;17.50;33.40;;;;;;4973148;28;20682;-54
2023/06/05 04:45:08;;;;;;;4.77;3.57;;;17.50;33.80;;;;;;4972918;28;20232;-58
2023/06/05 04:47:35;;;;;;;4.15;2.70;;;17.50;34.30;;;;;;4973070;28;20275;-56
2023/06/05 04:50:06;;;;;;;3.95;2.50;;;17.60;33.90;;;;;;4973013;28;20231;-57
2023/06/05 04:52:36;;;;;;;2.67;2.00;;;17.70;33.60;;;;;;4973417;28;20159;-56
2023/06/05 04:55:02;;;;;;;3.80;3.30;;;17.80;33.90;;;;;;4973057;28;20274;-55
2023/06/05 04:57:31;;;;;;;4.63;2.75;;;17.90;33.10;;;;;;4973273;28;20286;-56
2023/06/05 04:59:57;;;;;;;3.13;2.20;;;17.90;32.50;;;;;;4955446;28;20242;-54
2023/06/05 05:02:23;;;;;;;4.43;2.80;;;17.90;32.60;;;;;;4973059;28;20247;-56
2023/06/05 05:04:49;;;;;;;5.85;2.80;;;17.90;32.90;;;;;;4972991;28;20215;-59
2023/06/05 05:07:16;;;;;;;4.80;2.43;;;17.90;33.10;;;;;;4972892;28;20216;-56
2023/06/05 05:09:42;;;;;;;7.00;3.38;;;17.90;32.90;;;;;;4939603;28;20505;-59
2023/06/05 05:12:09;;;;;;;4.30;2.28;;;17.90;32.80;;;;;;4955483;28;20344;-54
2023/06/05 05:14:35;;;;;;;4.60;3.25;;;17.90;32.70;;;;;;4972826;28;20712;-55
2023/06/05 05:17:02;;;;;;;4.65;3.08;;;18.00;32.70;;;;;;4973135;28;20259;-58
2023/06/05 05:19:28;;;;;;;4.38;3.85;;;17.90;32.70;;;;;;4972756;28;20546;-55
2023/06/05 05:21:54;;;;;;;7.15;2.90;;;18.00;33.00;;;;;;4972859;28;20184;-54
2023/06/05 05:24:21;;;;;;;2.83;2.40;;;18.00;33.10;;;;;;4972736;28;20235;-58
2023/06/05 05:26:46;;;;;;;3.95;2.50;;;18.10;33.20;;;;;;4972576;28;20226;-54
2023/06/05 05:29:12;;;;;;;4.33;3.00;;;18.20;33.20;;;;;;4972835;28;20192;-55
2023/06/05 05:31:38;;;;;;;6.93;2.67;;;18.30;32.90;;;;;;4972864;28;20179;-55
2023/06/05 05:34:05;;;;;;;5.37;3.20;;;18.30;32.30;;;;;;4973289;28;20643;-54
2023/06/05 05:36:33;;;;;;;7.28;2.28;;;18.40;32.60;;;;;;4976212;28;20210;-57
2023/06/05 05:38:58;;;;;;;4.25;2.72;;;18.40;32.60;;;;;;4959311;28;20206;-55
2023/06/05 05:41:24;;;;;;;6.17;3.20;;;18.60;32.60;;;;;;4976232;28;20213;-58
2023/06/05 05:43:50;;;;;;;5.03;2.90;;;18.60;32.20;;;;;;4976318;28;20206;-54
2023/06/05 05:46:16;;;;;;;5.80;4.20;;;18.80;32.30;;;;;;4958759;28;20255;-58
2023/06/05 05:48:42;;;;;;;3.27;2.67;;;18.90;31.70;;;;;;4959168;28;20460;-55
2023/06/05 05:51:07;;;;;;;4.90;2.83;;;19.00;31.80;;;;;;4975716;28;20176;-54
2023/06/05 05:53:33;;;;;;;4.87;3.43;;;19.00;31.80;;;;;;4975960;28;20407;-58
2023/06/05 05:56:00;;;;;;;4.40;2.90;;;19.10;31.80;;;;;;4975894;28;20180;-55
2023/06/05 05:58:26;;;;;;;10.10;3.80;;;19.10;31.40;;;;;;4976140;28;20439;-59
2023/06/05 06:00:52;;;;;;;4.10;3.10;;;19.10;31.20;;;;;;4975742;28;20530;-54
2023/06/05 06:03:18;;;;;;;5.72;3.15;;;19.10;31.30;;;;;;4975995;28;20502;-57
2023/06/05 06:05:47;;;;;;;2.92;2.28;;;19.20;31.20;;;;;;4975914;28;20192;-57
2023/06/05 06:08:13;;;;;;;4.70;2.63;;;19.30;30.80;;;;;;4975713;28;20188;-55
2023/06/05 06:10:40;;;;;;;4.30;3.50;;;19.40;31.30;;;;;;4975331;28;20230;-56
2023/06/05 06:13:06;;;;;;;5.38;3.15;;;19.60;31.20;;;;;;4975635;28;20221;-58
2023/06/05 06:15:32;;;;;;;6.93;3.30;;;19.70;30.80;;;;;;4975532;28;20187;-58
2023/06/05 06:18:02;;;;;;;5.47;3.00;;;19.80;30.80;;;;;;4975546;28;20199;-55
2023/06/05 06:20:28;;;;;;;6.90;3.33;;;19.90;30.60;;;;;;4975211;28;20465;-60
2023/06/05 06:22:54;;;;;;;6.20;3.72;;;19.90;30.80;;;;;;4975261;28;20646;-54
2023/06/05 06:25:21;;;;;;;6.05;3.15;;;20.00;30.50;;;;;;4975526;28;20535;-55
2023/06/05 06:27:53;;;;;;;4.55;2.60;;;20.10;30.60;;;;;;4975262;28;20207;-55
2023/06/05 06:30:19;;;;;;;3.95;2.55;;;20.30;30.80;;;;;;4975161;28;20190;-56
2023/06/05 06:32:45;;;;;;;3.03;2.72;;;20.40;30.60;;;;;;4975336;28;20591;-55
2023/06/05 06:35:13;;;;;;;5.33;2.77;;;20.50;29.90;;;;;;4975131;28;20171;-55
2023/06/05 06:37:40;;;;;;;11.50;3.30;;;20.60;30.20;;;;;;4975082;28;20246;-59
2023/06/05 06:40:09;;;;;;;3.25;2.80;;;20.80;30.40;;;;;;4975073;28;20551;-55
2023/06/05 06:42:36;;;;;;;8.35;3.25;;;20.90;29.90;;;;;;4975064;28;20191;-55
2023/06/05 06:45:03;;;;;;;4.00;3.20;;;21.00;29.40;;;;;;4974844;28;20686;-58
2023/06/05 06:47:29;;;;;;;5.00;2.50;;;21.00;29.40;;;;;;4974206;28;20191;-54
2023/06/05 06:49:55;;;;;;;3.10;2.70;;;21.00;29.30;;;;;;4975048;28;20255;-58
2023/06/05 06:52:21;;;;;;;8.70;3.80;;;20.90;29.10;;;;;;4974743;28;20570;-54
2023/06/05 06:54:47;;;;;;;4.10;3.33;;;21.00;29.60;;;;;;4974858;28;20187;-58
2023/06/05 06:57:12;;;;;;;4.75;3.40;;;21.10;30.00;;;;;;4974815;28;20430;-60
2023/06/05 06:59:41;;;;;;;3.33;2.90;;;21.20;29.60;;;;;;4974557;28;20180;-55
2023/06/05 07:02:17;;;;;;;4.00;3.08;;;21.30;30.00;;;;;;4974734;28;20410;-55
2023/06/05 07:04:44;;;;;;;6.05;3.53;;;21.50;29.90;;;;;;4974353;28;20210;-57
2023/06/05 07:07:12;;;;;;;7.15;3.38;;;21.70;29.70;;;;;;4957513;28;20203;-54
2023/06/05 07:09:41;;;;;;;6.93;4.35;;;21.90;28.70;;;;;;4974314;28;20179;-55
2023/06/05 07:12:14;;;;;;;5.32;3.75;;;21.90;28.10;;;;;;4974772;28;20187;-58
2023/06/05 07:14:40;;;;;;;7.65;4.35;;;22.10;29.20;;;;;;4974531;28;20226;-54
2023/06/05 07:17:06;;;;;;;5.45;3.38;;;22.20;29.50;;;;;;4974378;28;20204;-57
2023/06/05 07:19:33;;;;;;;6.25;2.60;;;22.40;28.60;;;;;;4974052;28;20554;-55
2023/06/05 07:22:01;;;;;;;4.28;3.10;;;22.60;28.60;;;;;;4956970;28;20291;-58
2023/06/05 07:24:28;;;;;;;7.65;3.65;;;22.70;28.30;;;;;;4974207;28;20204;-55
2023/06/05 07:26:56;;;;;;;6.40;3.45;;;22.90;28.50;;;;;;4974166;28;20199;-55
2023/06/05 07:29:25;;;;;;;4.70;3.10;;;23.00;28.30;;;;;;4974403;28;20259;-58
2023/06/05 07:31:55;;;;;;;6.07;3.08;;;23.20;28.30;;;;;;4974071;28;20255;-54
2023/06/05 07:34:23;;;;;;;5.77;3.10;;;22.60;27.90;;;;;;4974151;28;20184;-57
2023/06/05 07:36:51;;;;;;;5.30;2.70;;;23.40;27.90;;;;;;4974195;28;20431;-57
2023/06/05 07:39:19;;;;;;;5.30;3.40;;;23.50;28.00;;;;;;4973773;28;20531;-55
2023/06/05 07:41:44;;;;;;;4.73;2.73;;;23.60;28.40;;;;;;4974239;28;20418;-56
2023/06/05 07:44:13;;;;;;;4.60;2.97;;;23.70;29.00;;;;;;4973837;28;20450;-57
2023/06/05 07:46:43;;;;;;;3.30;2.73;;;24.00;29.10;;;;;;4973862;28;20243;-55
2023/06/05 07:49:09;;;;;;;7.70;4.17;;;24.20;29.00;;;;;;4973765;28;20558;-55
2023/06/05 07:51:39;;;;;;;7.27;3.17;;;24.40;28.90;;;;;;4973718;28;20436;-58
2023/06/05 07:54:07;;;;;;;4.67;3.80;;;24.50;28.80;;;;;;4956493;28;20203;-55
2023/06/05 07:56:33;;;;;;;12.83;2.87;;;24.60;27.80;;;;;;4973789;28;20988;-54
2023/06/05 07:59:00;;;;;;;6.70;3.23;;;24.70;28.00;;;;;;4973485;28;20438;-55
2023/06/05 08:01:27;;;;;;;4.87;3.20;;;24.80;26.00;;;;;;4973362;28;20909;-54
2023/06/05 08:03:54;;;;;;;5.97;3.20;;;24.80;26.00;;;;;;4973777;28;20525;-57
2023/06/05 08:06:20;;;;;;;6.30;2.97;;;24.90;26.70;;;;;;4973456;28;20526;-55
2023/06/05 08:08:45;;;;;;;10.00;4.27;;;24.90;27.10;;;;;;4973628;28;20826;-57
2023/06/05 08:11:11;;;;;;;8.53;3.33;;;25.00;27.30;;;;;;4955947;28;20419;-55
2023/06/05 08:13:38;;;;;;;8.00;3.13;;;25.00;26.80;;;;;;4973412;28;20179;-55
2023/06/05 08:16:05;;;;;;;6.20;2.97;;;24.90;26.70;;;;;;4973499;28;20200;-60
2023/06/05 08:18:30;;;;;;;10.67;3.27;;;25.00;26.90;;;;;;4973404;28;20422;-58
2023/06/05 08:20:56;;;;;;;11.20;3.80;;;25.00;26.30;;;;;;4955995;28;20420;-55
2023/06/05 08:23:22;;;;;;;5.73;3.20;;;25.10;27.00;;;;;;4973376;28;20413;-55
2023/06/05 08:25:48;;;;;;;9.07;3.77;;;25.20;26.90;;;;;;4973415;28;20164;-58
2023/06/05 08:28:15;;;;;;;32.10;16.53;;;25.30;26.30;;;;;;4973204;28;20843;-55
2023/06/05 08:30:41;;;;;;;7.70;4.27;;;25.40;26.10;;;;;;4973049;28;20196;-58
2023/06/05 08:33:07;;;;;;;4.17;2.90;;;25.50;25.70;;;;;;4973548;28;20408;-55
2023/06/05 08:35:33;;;;;;;5.03;3.80;;;25.60;25.70;;;;;;4973200;28;20404;-55
2023/06/05 08:37:59;;;;;;;6.43;3.70;;;25.80;25.30;;;;;;4973094;28;20478;-55
2023/06/05 08:40:29;;;;;;;5.93;3.20;;;25.90;25.00;;;;;;4972973;28;20207;-54
2023/06/05 08:42:56;;;;;;;12.23;3.43;;;26.10;25.90;;;;;;4973119;28;20762;-55
2023/06/05 08:45:22;;;;;;;4.87;3.53;;;26.30;25.20;;;;;;4956040;28;20466;-59
2023/06/05 08:47:52;;;;;;;9.57;3.37;;;26.50;24.90;;;;;;4972937;28;20482;-55
2023/06/05 08:50:18;;;;;;;8.03;3.87;;;26.60;23.90;;;;;;4972835;28;20766;-59
2023/06/05 08:52:46;;;;;;;4.73;3.33;;;26.70;24.70;;;;;;4973390;28;20407;-56
2023/06/05 08:55:12;;;;;;;6.00;2.80;;;27.00;25.70;;;;;;4973280;28;20191;-55
2023/06/05 08:57:40;;;;;;;3.70;2.77;;;27.20;25.20;;;;;;4972891;28;20439;-54
2023/06/05 09:00:07;;;;;;;8.70;3.60;;;27.30;25.30;;;;;;4972813;28;20175;-56
2023/06/05 09:02:33;;;;;;;3.47;2.77;;;27.50;25.70;;;;;;4955604;28;20425;-56
2023/06/05 09:05:00;;;;;;;4.57;3.20;;;27.70;25.20;;;;;;4973024;28;20495;-58
2023/06/05 09:07:28;;;;;;;4.47;3.43;;;27.90;24.40;;;;;;4972877;28;20855;-55
2023/06/05 09:09:54;;;;;;;4.37;3.63;;;28.00;23.40;;;;;;4974668;28;20984;-54
2023/06/05 09:12:20;;;;;;;6.17;3.80;;;28.10;23.30;;;;;;4977024;28;20455;-56
2023/06/05 09:14:46;;;;;;;10.00;3.27;;;28.10;22.30;;;;;;4976997;28;20414;-57
2023/06/05 09:17:13;;;;;;;3.60;3.03;;;28.00;22.60;;;;;;4976547;28;20192;-55
2023/06/05 09:19:42;;;;;;;6.80;3.43;;;28.10;23.70;;;;;;4976471;28;20202;-54
2023/06/05 09:22:10;;;;;;;5.10;3.50;;;28.30;24.20;;;;;;4959317;28;20411;-57
2023/06/05 09:24:37;;;;;;;3.87;3.13;;;28.40;23.90;;;;;;4976371;28;20458;-57
2023/06/05 09:27:05;;;;;;;7.03;3.10;;;28.50;23.50;;;;;;4976488;28;20423;-57
2023/06/05 09:29:37;;;;;;;4.90;3.77;;;28.60;22.00;;;;;;4976539;28;20399;-58
2023/06/05 09:32:06;;;;;;;7.23;3.63;;;28.70;22.80;;;;;;4976380;28;20454;-57
2023/06/05 09:34:33;;;;;;;7.80;3.53;;;28.80;21.70;;;;;;4976381;28;20809;-58
2023/06/05 09:37:06;;;;;;;5.87;3.30;;;29.00;23.30;;;;;;4976132;28;20439;-55
2023/06/05 09:39:35;;;;;;;5.60;4.10;;;29.10;21.90;;;;;;4976161;28;20400;-55
2023/06/05 09:42:01;;;;;;;7.00;2.90;;;29.20;23.00;;;;;;4976164;28;20424;-58
2023/06/05 09:44:28;;;;;;;7.43;3.00;;;29.20;22.60;;;;;;4958960;28;20451;-55
2023/06/05 09:46:56;;;;;;;3.70;3.00;;;29.30;22.20;;;;;;4976327;28;20426;-57
2023/06/05 09:49:28;;;;;;;4.33;3.00;;;29.30;22.40;;;;;;4976136;28;20419;-57
2023/06/05 09:51:56;;;;;;;3.60;3.13;;;29.50;22.40;;;;;;4976417;28;20422;-57
2023/06/05 09:54:24;;;;;;;4.00;3.60;;;29.50;22.00;;;;;;4976333;28;20416;-57
2023/06/05 09:56:50;;;;;;;5.00;3.40;;;29.70;21.80;;;;;;4976044;28;20434;-55
2023/06/05 09:59:22;;;;;;;7.97;3.90;;;29.80;22.20;;;;;;4975813;28;20411;-55
2023/06/05 10:01:53;;;;;;;5.50;3.47;;;29.80;20.80;;;;;;4975729;28;20176;-56
2023/06/05 10:04:22;;;;;;;3.80;2.97;;;29.90;21.10;;;;;;4975837;28;20553;-56
2023/06/05 10:06:49;;;;;;;5.90;3.40;;;29.90;20.00;;;;;;4975741;28;21012;-58
2023/06/05 10:09:15;;;;;;;6.13;3.60;;;29.80;19.60;;;;;;4975809;28;20455;-57
2023/06/05 10:11:41;;;;;;;4.20;3.60;;;29.60;19.50;;;;;;4975812;28;20416;-54
2023/06/05 10:14:09;;;;;;;7.63;3.60;;;29.50;19.90;;;;;;4975776;28;20172;-58
2023/06/05 10:16:36;;;;;;;4.43;3.33;;;29.50;19.70;;;;;;4975579;28;20930;-55
2023/06/05 10:19:03;;;;;;;3.70;3.30;;;29.40;19.90;;;;;;4975443;28;20451;-57
2023/06/05 10:21:30;;;;;;;6.27;4.00;;;29.40;20.30;;;;;;4975349;28;20802;-58
2023/06/05 10:23:58;;;;;;;4.10;3.50;;;29.30;20.40;;;;;;4975439;28;20542;-55
2023/06/05 10:26:51;;;;;;;3.07;2.70;;;29.40;20.60;;;;;;4975473;28;20428;-55
2023/06/05 10:29:32;;;;;;;3.50;2.87;;;29.50;21.50;;;;;;4975459;28;20413;-55
2023/06/05 10:32:05;;;;;;;11.03;3.17;;;29.60;21.10;;;;;;4975545;28;20399;-57
2023/06/05 10:34:53;;;;;;;12.83;3.90;;;29.70;20.30;;;;;;4975648;28;20404;-55
2023/06/05 10:37:43;;;;;;;4.30;2.80;;;29.80;20.40;;;;;;4975454;28;20862;-56
2023/06/05 10:40:10;;;;;;;13.20;4.17;;;29.80;21.50;;;;;;4975027;28;20419;-55
2023/06/05 10:42:36;;;;;;;4.70;3.53;;;30.00;21.60;;;;;;4975194;28;20419;-55
2023/06/05 10:45:02;;;;;;;3.00;2.63;;;30.10;20.00;;;;;;4975202;28;20451;-57
2023/06/05 10:47:37;;;;;;;4.50;3.40;;;30.20;20.20;;;;;;4975140;28;20470;-55
2023/06/05 10:50:25;;;;;;;4.53;2.90;;;30.20;20.90;;;;;;4974894;28;20939;-55
2023/06/05 10:52:53;;;;;;;4.40;3.33;;;30.30;20.50;;;;;;4975231;28;20384;-54
2023/06/05 10:55:20;;;;;;;5.50;3.00;;;30.20;21.20;;;;;;4974846;28;20422;-56
2023/06/05 10:58:01;;;;;;;3.57;3.27;;;30.20;20.70;;;;;;4975147;28;20435;-58
2023/06/05 11:00:30;;;;;;;3.83;3.53;;;30.30;18.70;;;;;;4974612;28;20422;-55
2023/06/05 11:02:57;;;;;;;2.93;2.27;;;30.10;19.30;;;;;;4975062;28;20403;-58
2023/06/05 11:05:23;;;;;;;5.53;3.63;;;30.00;19.40;;;;;;4974749;28;20499;-55
2023/06/05 11:08:09;;;;;;;5.30;3.50;;;29.90;18.80;;;;;;4974660;28;20821;-56
2023/06/05 11:10:36;;;;;;;5.63;2.67;;;29.90;18.50;;;;;;4974667;28;20735;-55
2023/06/05 11:13:02;;;;;;;6.13;2.83;;;29.90;19.60;;;;;;4974892;28;20463;-58
2023/06/05 11:15:36;;;;;;;3.93;2.93;;;29.90;18.70;;;;;;4974942;28;20418;-55
2023/06/05 11:18:40;;;;;;;4.60;2.40;;;29.90;18.00;;;;;;4974619;28;20833;-58
2023/06/05 11:21:06;;;;;;;5.00;2.80;;;29.80;18.20;;;;;;4914334;29;20979;-55
2023/06/05 11:23:32;;;;;;;4.60;2.60;;;29.80;19.10;;;;;;4914578;29;20418;-58
2023/06/05 11:26:19;;;;;;;3.30;2.90;;;30.00;19.60;;;;;;4914643;29;20798;-55
2023/06/05 11:28:45;;;;;;;6.50;3.17;;;30.20;19.40;;;;;;4914515;29;20182;-55
2023/06/05 11:31:11;;;;;;;4.40;3.33;;;30.20;18.50;;;;;;4914381;29;20465;-57
2023/06/05 11:33:37;;;;;;;4.83;3.07;;;30.20;18.80;;;;;;4913964;29;20198;-56
2023/06/05 11:36:07;;;;;;;3.83;2.80;;;30.20;19.10;;;;;;4914434;29;20421;-56
2023/06/05 11:38:33;;;;;;;3.80;2.77;;;30.30;19.30;;;;;;4914392;29;20466;-57
2023/06/05 11:40:59;;;;;;;6.57;3.23;;;30.40;19.00;;;;;;4914218;29;20414;-56
2023/06/05 11:43:25;;;;;;;6.73;3.30;;;30.50;19.10;;;;;;4914313;29;20445;-56
2023/06/05 11:45:56;;;;;;;3.47;3.17;;;30.50;18.30;;;;;;4914280;29;20186;-58
2023/06/05 11:48:24;;;;;;;5.20;2.90;;;30.40;18.80;;;;;;4914309;29;20476;-57
2023/06/05 11:50:57;;;;;;;4.13;2.83;;;30.50;18.00;;;;;;4919124;28;20928;-58
2023/06/05 11:53:23;;;;;;;5.93;4.03;;;30.50;18.80;;;;;;4973944;28;20940;-55
2023/06/05 11:58:22;;;;;;;3.33;2.77;;;30.50;18.70;;;;;;4973668;28;20427;-55
2023/06/05 12:00:48;;;;;;;4.53;3.17;;;30.60;18.50;;;;;;4973556;28;20562;-55
2023/06/05 12:03:18;;;;;;;4.20;2.97;;;30.80;19.00;;;;;;4973555;28;20510;-57
2023/06/05 12:05:45;;;;;;;4.50;2.47;;;30.90;18.10;;;;;;4973534;28;20993;-55
2023/06/05 12:08:33;;;;;;;5.10;3.07;;;31.00;17.40;;;;;;4973649;28;20431;-58
2023/06/05 12:10:59;;;;;;;4.27;3.00;;;31.30;17.40;;;;;;4973235;28;21007;-55
2023/06/05 12:13:44;;;;;;;6.47;3.00;;;31.40;18.40;;;;;;4973552;28;20772;-58
2023/06/05 12:16:10;;;;;;;8.00;3.40;;;31.60;18.10;;;;;;4973491;28;20431;-56
2023/06/05 12:18:36;;;;;;;6.07;3.43;;;31.60;17.10;;;;;;4973627;28;20431;-58
2023/06/05 12:21:02;;;;;;;5.50;2.73;;;31.50;16.80;;;;;;4973613;28;20589;-55
2023/06/05 12:23:32;;;;;;;3.50;3.20;;;31.30;17.20;;;;;;4973336;28;20195;-55
2023/06/05 12:26:03;;;;;;;3.50;3.03;;;31.10;16.40;;;;;;4973594;28;20412;-55
2023/06/05 12:28:29;;;;;;;3.50;2.40;;;30.80;15.90;;;;;;4973640;28;20422;-59
2023/06/05 12:30:55;;;;;;;4.97;2.70;;;30.50;16.70;;;;;;4973413;28;20407;-58
2023/06/05 12:33:24;;;;;;;5.10;3.13;;;30.40;17.40;;;;;;4973191;28;20411;-56
2023/06/05 12:36:06;;;;;;;3.20;2.77;;;30.30;16.20;;;;;;4973157;28;20207;-58
2023/06/05 12:38:41;;;;;;;4.43;2.90;;;30.40;17.50;;;;;;4973487;28;20531;-56
2023/06/05 12:41:10;;;;;;;5.17;3.30;;;30.50;17.80;;;;;;4956688;28;20479;-55
2023/06/05 12:43:36;;;;;;;3.60;3.00;;;30.50;17.20;;;;;;4972674;28;20540;-57
2023/06/05 12:46:02;;;;;;;9.87;4.00;;;30.50;16.90;;;;;;4973072;28;20488;-57
2023/06/05 12:48:28;;;;;;;3.87;3.33;;;30.40;17.50;;;;;;4973026;28;20413;-55
2023/06/05 12:50:56;;;;;;;7.53;3.10;;;30.40;17.60;;;;;;4972969;28;20767;-58
2023/06/05 12:53:22;;;;;;;3.23;2.93;;;30.40;17.50;;;;;;4973017;28;20180;-55